Terminal Aerodrome Forecast
Issued by NWS Oklahoma City, OK

Home | Current Version | Previous Version | Text Only | Print | Product List | Glossary On
Versions: 1 2 3 4 5 6 7 8 9 10 11 12 13 14 15
000
FTUS44 KOUN 040124 AAB
TAFOUN
TAF AMD
KOUN 040124Z 0401/0424 08006KT 3SM -DZ BKN004 OVC010
     FM040500 04005KT 1SM -DZ BR OVC005
     FM041000 34004KT 1/2SM FG OVC003
     FM041400 34006KT 4SM BR BKN007 OVC015
     FM041600 35009KT P6SM BKN030
     FM041800 35010KT P6SM SCT030=

USA.gov is the U.S. government's official web portal to all federal, state and local government web resources and services.